Flag for USA

Past Weather in Punxsutawney, Pennsylvania, USA — Yesterday and Last 2 Weeks

Currently: 51 °F. Mostly cloudy. (Weather station: Du Bois-Jefferson County Airport, USA). See more current weather

Past Weather in Punxsutawney — Graph

°F

Punxsutawney Temperature Yesterday

Maximum temperature yesterday: 50 °F (at 10:53 am)
Minimum temperature yesterday: 37 °F (at 3:53 am)
Average temperature yesterday: 43 °F

High & Low Weather Summary for the Past Weeks

 TemperatureHumidityPressure
High63 °F (Nov 11, 11:53 am)96% (Nov 14, 7:08 am)30.56 "Hg (Nov 14, 7:08 am)
Low25 °F (Nov 24, 7:53 am)25% (Nov 19, 9:53 pm)29.52 "Hg (Nov 15, 2:24 pm)
Average41 °F71%30.13 "Hg
* Reported Nov 11 3:53 am — Nov 26 3:53 am, Punxsutawney. Weather by CustomWeather, © 2020

Note: Actual official high and low records may vary slightly from our data, if they occured in-between our weather recording intervals... More about our weather records

Punxsutawney Weather History for the Previous 24 Hours

Scroll right to see more
 ConditionsComfort  
Time TempWeatherWind HumidityBarometerVisibility
3:53 am
Thu, Nov 26
50 °FLight rain. Fog.6 mph89%29.85 "Hg6 mi
3:31 am50 °FLight rain. Fog.5 mph93%29.87 "Hg4 mi
3:21 am50 °FLight rain. Fog.7 mph89%29.87 "Hg3 mi
2:53 am50 °FLight rain. Fog.9 mph86%29.86 "Hg5 mi
1:53 am47 °FPassing clouds.12 mph90%29.86 "Hg9 mi
12:53 am46 °FFog.12 mph89%29.90 "Hg6 mi
11:53 pm
Wed, Nov 25
45 °FFog.13 mph90%29.92 "Hg6 mi
11:23 pm45 °FFog.12 mph90%29.92 "Hg6 mi
10:53 pm44 °FFog.12 mph93%29.94 "Hg5 mi
10:37 pm44 °FLight rain. Fog.12 mph93%29.94 "Hg4 mi
9:53 pm44 °FLight rain. Fog.9 mph89%29.98 "Hg5 mi
8:53 pm42 °FLight rain. Fog.10 mph89%30.00 "Hg5 mi
7:53 pm42 °FLight rain. Fog.10 mph85%30.03 "Hg6 mi
6:53 pm44 °FMostly cloudy.8 mph73%30.04 "Hg10 mi
5:53 pm47 °FOvercast.14 mph59%30.03 "Hg10 mi
4:53 pm47 °FOvercast.12 mph61%30.04 "Hg10 mi
3:53 pm48 °FOvercast.10 mph61%30.05 "Hg10 mi
2:53 pm47 °FMostly cloudy.12 mph74%30.05 "Hg10 mi
1:53 pm46 °FMostly cloudy.7 mph79%30.08 "Hg10 mi
1:19 pm46 °FMore clouds than sun.6 mph79%30.08 "Hg9 mi
12:53 pm47 °FOvercast.6 mph74%30.12 "Hg8 mi
12:34 pm48 °FMostly cloudy.8 mph68%30.10 "Hg10 mi
11:53 am50 °FOvercast.9 mph57%30.13 "Hg10 mi
10:53 am50 °FOvercast.13 mph46%30.14 "Hg10 mi
9:53 am45 °FPartly sunny.7 mph53%30.14 "Hg10 mi
8:53 am40 °FOvercast.6 mph65%30.14 "Hg10 mi
7:53 am37 °FSunny.5 mph70%30.14 "Hg10 mi
6:53 am37 °FPassing clouds.8 mph67%30.14 "Hg10 mi
5:53 am37 °FClear.9 mph67%30.14 "Hg10 mi
Weather by CustomWeather, © 2020

See weather overview